sensor_id;sensor_type;location;lat;lon;timestamp;P1;P2;P0
31330;PMS5003;34067;39.548;-76.088;2024-02-21T00:01:34;45;45;
31330;PMS5003;34067;39.548;-76.088;2024-02-21T00:04:02;79;77;
31330;PMS5003;34067;39.548;-76.088;2024-02-21T00:06:30;90;89;
31330;PMS5003;34067;39.548;-76.088;2024-02-21T00:08:58;100;99;
31330;PMS5003;34067;39.548;-76.088;2024-02-21T00:11:26;83;83;
31330;PMS5003;34067;39.548;-76.088;2024-02-21T00:13:55;73;73;
31330;PMS5003;34067;39.548;-76.088;2024-02-21T00:16:23;56;54;
31330;PMS5003;34067;39.548;-76.088;2024-02-21T00:18:51;51;51;
31330;PMS5003;34067;39.548;-76.088;2024-02-21T00:21:19;53;53;
31330;PMS5003;34067;39.548;-76.088;2024-02-21T00:23:46;27;27;
31330;PMS5003;34067;39.548;-76.088;2024-02-21T00:26:14;6;6;
31330;PMS5003;34067;39.548;-76.088;2024-02-21T00:28:43;9;8;
31330;PMS5003;34067;39.548;-76.088;2024-02-21T00:31:11;12;10;
31330;PMS5003;34067;39.548;-76.088;2024-02-21T00:33:39;9;6;
31330;PMS5003;34067;39.548;-76.088;2024-02-21T00:36:07;13;12;
31330;PMS5003;34067;39.548;-76.088;2024-02-21T00:38:35;17;15;
31330;PMS5003;34067;39.548;-76.088;2024-02-21T00:41:03;17;16;
31330;PMS5003;34067;39.548;-76.088;2024-02-21T00:43:31;35;35;
31330;PMS5003;34067;39.548;-76.088;2024-02-21T00:45:59;13;13;
31330;PMS5003;34067;39.548;-76.088;2024-02-21T00:48:26;64;63;
31330;PMS5003;34067;39.548;-76.088;2024-02-21T00:50:55;53;53;
31330;PMS5003;34067;39.548;-76.088;2024-02-21T00:53:23;33;32;
31330;PMS5003;34067;39.548;-76.088;2024-02-21T00:55:51;31;31;
31330;PMS5003;34067;39.548;-76.088;2024-02-21T00:58:19;23;22;
31330;PMS5003;34067;39.548;-76.088;2024-02-21T01:00:48;29;29;
31330;PMS5003;34067;39.548;-76.088;2024-02-21T01:03:15;28;28;
31330;PMS5003;34067;39.548;-76.088;2024-02-21T01:05:43;33;32;
31330;PMS5003;34067;39.548;-76.088;2024-02-21T01:08:11;6;6;
31330;PMS5003;34067;39.548;-76.088;2024-02-21T01:10:39;10;10;
31330;PMS5003;34067;39.548;-76.088;2024-02-21T01:13:07;38;38;
31330;PMS5003;34067;39.548;-76.088;2024-02-21T01:15:35;11;11;
31330;PMS5003;34067;39.548;-76.088;2024-02-21T01:18:03;3;3;
31330;PMS5003;34067;39.548;-76.088;2024-02-21T01:20:31;3;2;
31330;PMS5003;34067;39.548;-76.088;2024-02-21T01:22:59;4;3;
31330;PMS5003;34067;39.548;-76.088;2024-02-21T01:25:26;3;2;
31330;PMS5003;34067;39.548;-76.088;2024-02-21T01:27:54;3;3;
31330;PMS5003;34067;39.548;-76.088;2024-02-21T01:30:22;1;1;
31330;PMS5003;34067;39.548;-76.088;2024-02-21T01:32:49;4;4;
31330;PMS5003;34067;39.548;-76.088;2024-02-21T01:35:17;3;3;
31330;PMS5003;34067;39.548;-76.088;2024-02-21T01:37:45;1;1;
31330;PMS5003;34067;39.548;-76.088;2024-02-21T01:40:12;2;2;
31330;PMS5003;34067;39.548;-76.088;2024-02-21T01:42:41;2;2;
31330;PMS5003;34067;39.548;-76.088;2024-02-21T01:45:09;2;2;
31330;PMS5003;34067;39.548;-76.088;2024-02-21T01:47:37;2;1;
31330;PMS5003;34067;39.548;-76.088;2024-02-21T01:50:06;1;1;
31330;PMS5003;34067;39.548;-76.088;2024-02-21T01:52:35;1;1;
31330;PMS5003;34067;39.548;-76.088;2024-02-21T01:55:03;1;1;
31330;PMS5003;34067;39.548;-76.088;2024-02-21T01:57:32;3;2;
31330;PMS5003;34067;39.548;-76.088;2024-02-21T02:00:01;2;1;
31330;PMS5003;34067;39.548;-76.088;2024-02-21T02:02:29;1;1;
31330;PMS5003;34067;39.548;-76.088;2024-02-21T02:04:57;1;1;
31330;PMS5003;34067;39.548;-76.088;2024-02-21T02:07:26;3;1;
31330;PMS5003;34067;39.548;-76.088;2024-02-21T02:09:53;1;1;
31330;PMS5003;34067;39.548;-76.088;2024-02-21T02:12:21;1;1;
31330;PMS5003;34067;39.548;-76.088;2024-02-21T02:14:57;1;1;
31330;PMS5003;34067;39.548;-76.088;2024-02-21T02:17:25;2;1;
31330;PMS5003;34067;39.548;-76.088;2024-02-21T02:19:54;1;1;
31330;PMS5003;34067;39.548;-76.088;2024-02-21T02:22:22;1;1;
31330;PMS5003;34067;39.548;-76.088;2024-02-21T02:24:55;0;0;
31330;PMS5003;34067;39.548;-76.088;2024-02-21T02:27:23;1;1;
31330;PMS5003;34067;39.548;-76.088;2024-02-21T02:29:51;1;1;
31330;PMS5003;34067;39.548;-76.088;2024-02-21T02:32:18;1;0;
31330;PMS5003;34067;39.548;-76.088;2024-02-21T02:34:46;3;2;
31330;PMS5003;34067;39.548;-76.088;2024-02-21T02:37:13;2;2;
31330;PMS5003;34067;39.548;-76.088;2024-02-21T02:39:42;1;1;
31330;PMS5003;34067;39.548;-76.088;2024-02-21T02:42:10;2;2;
31330;PMS5003;34067;39.548;-76.088;2024-02-21T02:44:38;1;1;
31330;PMS5003;34067;39.548;-76.088;2024-02-21T02:47:06;2;1;
31330;PMS5003;34067;39.548;-76.088;2024-02-21T02:49:35;1;1;
31330;PMS5003;34067;39.548;-76.088;2024-02-21T02:52:03;1;1;
31330;PMS5003;34067;39.548;-76.088;2024-02-21T02:54:31;1;1;
31330;PMS5003;34067;39.548;-76.088;2024-02-21T02:56:59;2;1;
31330;PMS5003;34067;39.548;-76.088;2024-02-21T02:59:26;0;0;
31330;PMS5003;34067;39.548;-76.088;2024-02-21T03:01:54;0;0;
31330;PMS5003;34067;39.548;-76.088;2024-02-21T03:04:21;1;1;
31330;PMS5003;34067;39.548;-76.088;2024-02-21T03:06:49;1;0;
31330;PMS5003;34067;39.548;-76.088;2024-02-21T03:09:16;0;0;
31330;PMS5003;34067;39.548;-76.088;2024-02-21T03:11:44;1;0;
31330;PMS5003;34067;39.548;-76.088;2024-02-21T03:14:12;3;2;
31330;PMS5003;34067;39.548;-76.088;2024-02-21T03:16:40;1;1;
31330;PMS5003;34067;39.548;-76.088;2024-02-21T03:19:08;1;1;
31330;PMS5003;34067;39.548;-76.088;2024-02-21T03:21:36;1;1;
31330;PMS5003;34067;39.548;-76.088;2024-02-21T03:24:03;1;1;
31330;PMS5003;34067;39.548;-76.088;2024-02-21T03:26:32;3;1;
31330;PMS5003;34067;39.548;-76.088;2024-02-21T03:28:59;2;1;
31330;PMS5003;34067;39.548;-76.088;2024-02-21T03:31:27;0;0;
31330;PMS5003;34067;39.548;-76.088;2024-02-21T03:33:55;1;1;
31330;PMS5003;34067;39.548;-76.088;2024-02-21T03:36:22;2;1;
31330;PMS5003;34067;39.548;-76.088;2024-02-21T03:38:50;1;1;
31330;PMS5003;34067;39.548;-76.088;2024-02-21T03:41:17;2;2;
31330;PMS5003;34067;39.548;-76.088;2024-02-21T03:43:45;2;1;
31330;PMS5003;34067;39.548;-76.088;2024-02-21T03:46:14;1;1;
31330;PMS5003;34067;39.548;-76.088;2024-02-21T03:48:42;3;1;
31330;PMS5003;34067;39.548;-76.088;2024-02-21T03:51:09;3;2;
31330;PMS5003;34067;39.548;-76.088;2024-02-21T03:53:37;2;1;
31330;PMS5003;34067;39.548;-76.088;2024-02-21T03:56:05;2;2;
31330;PMS5003;34067;39.548;-76.088;2024-02-21T03:58:33;3;2;
31330;PMS5003;34067;39.548;-76.088;2024-02-21T04:01:01;2;2;
31330;PMS5003;34067;39.548;-76.088;2024-02-21T04:03:29;1;1;
31330;PMS5003;34067;39.548;-76.088;2024-02-21T04:05:57;1;1;
31330;PMS5003;34067;39.548;-76.088;2024-02-21T04:08:25;1;1;
31330;PMS5003;34067;39.548;-76.088;2024-02-21T04:10:53;2;2;
31330;PMS5003;34067;39.548;-76.088;2024-02-21T04:13:21;1;1;
31330;PMS5003;34067;39.548;-76.088;2024-02-21T04:15:48;1;1;
31330;PMS5003;34067;39.548;-76.088;2024-02-21T04:18:16;2;2;
31330;PMS5003;34067;39.548;-76.088;2024-02-21T04:20:44;1;1;
31330;PMS5003;34067;39.548;-76.088;2024-02-21T04:23:13;0;0;
31330;PMS5003;34067;39.548;-76.088;2024-02-21T04:25:41;1;1;
31330;PMS5003;34067;39.548;-76.088;2024-02-21T04:28:09;1;1;
31330;PMS5003;34067;39.548;-76.088;2024-02-21T04:30:36;1;1;
31330;PMS5003;34067;39.548;-76.088;2024-02-21T04:33:05;0;0;
31330;PMS5003;34067;39.548;-76.088;2024-02-21T04:35:32;1;1;
31330;PMS5003;34067;39.548;-76.088;2024-02-21T04:38:02;1;1;
31330;PMS5003;34067;39.548;-76.088;2024-02-21T04:40:30;2;2;
31330;PMS5003;34067;39.548;-76.088;2024-02-21T04:42:58;1;1;
31330;PMS5003;34067;39.548;-76.088;2024-02-21T04:45:25;1;1;
31330;PMS5003;34067;39.548;-76.088;2024-02-21T04:47:53;1;1;
31330;PMS5003;34067;39.548;-76.088;2024-02-21T04:50:20;1;0;
31330;PMS5003;34067;39.548;-76.088;2024-02-21T04:52:48;1;1;
31330;PMS5003;34067;39.548;-76.088;2024-02-21T04:55:16;2;1;
31330;PMS5003;34067;39.548;-76.088;2024-02-21T04:57:43;2;2;
31330;PMS5003;34067;39.548;-76.088;2024-02-21T05:00:11;1;1;
31330;PMS5003;34067;39.548;-76.088;2024-02-21T05:02:40;1;1;
31330;PMS5003;34067;39.548;-76.088;2024-02-21T05:05:08;2;2;
31330;PMS5003;34067;39.548;-76.088;2024-02-21T05:07:35;1;1;
31330;PMS5003;34067;39.548;-76.088;2024-02-21T05:10:03;2;1;
31330;PMS5003;34067;39.548;-76.088;2024-02-21T05:12:31;2;1;
31330;PMS5003;34067;39.548;-76.088;2024-02-21T05:14:59;2;2;
31330;PMS5003;34067;39.548;-76.088;2024-02-21T05:17:26;1;1;
31330;PMS5003;34067;39.548;-76.088;2024-02-21T05:19:55;1;1;
31330;PMS5003;34067;39.548;-76.088;2024-02-21T05:22:22;1;1;
31330;PMS5003;34067;39.548;-76.088;2024-02-21T05:24:50;2;2;
31330;PMS5003;34067;39.548;-76.088;2024-02-21T05:27:18;2;2;
31330;PMS5003;34067;39.548;-76.088;2024-02-21T05:29:46;1;1;
31330;PMS5003;34067;39.548;-76.088;2024-02-21T05:32:14;3;2;
31330;PMS5003;34067;39.548;-76.088;2024-02-21T05:34:41;1;1;
31330;PMS5003;34067;39.548;-76.088;2024-02-21T05:37:09;1;1;
31330;PMS5003;34067;39.548;-76.088;2024-02-21T05:39:36;2;2;
31330;PMS5003;34067;39.548;-76.088;2024-02-21T05:42:04;1;1;
31330;PMS5003;34067;39.548;-76.088;2024-02-21T05:44:32;1;1;
31330;PMS5003;34067;39.548;-76.088;2024-02-21T05:47:00;1;1;
31330;PMS5003;34067;39.548;-76.088;2024-02-21T05:49:28;2;2;
31330;PMS5003;34067;39.548;-76.088;2024-02-21T05:51:55;2;2;
31330;PMS5003;34067;39.548;-76.088;2024-02-21T05:54:23;3;2;
31330;PMS5003;34067;39.548;-76.088;2024-02-21T05:56:50;1;1;
31330;PMS5003;34067;39.548;-76.088;2024-02-21T05:59:18;1;1;
31330;PMS5003;34067;39.548;-76.088;2024-02-21T06:03:10;3;3;
31330;PMS5003;34067;39.548;-76.088;2024-02-21T06:05:38;2;2;
31330;PMS5003;34067;39.548;-76.088;2024-02-21T06:08:07;2;1;
31330;PMS5003;34067;39.548;-76.088;2024-02-21T06:10:35;1;1;
31330;PMS5003;34067;39.548;-76.088;2024-02-21T06:13:02;1;1;
31330;PMS5003;34067;39.548;-76.088;2024-02-21T06:15:30;3;2;
31330;PMS5003;34067;39.548;-76.088;2024-02-21T06:17:57;1;1;
31330;PMS5003;34067;39.548;-76.088;2024-02-21T06:20:25;4;2;
31330;PMS5003;34067;39.548;-76.088;2024-02-21T06:22:54;2;2;
31330;PMS5003;34067;39.548;-76.088;2024-02-21T06:25:22;1;1;
31330;PMS5003;34067;39.548;-76.088;2024-02-21T06:27:49;2;1;
31330;PMS5003;34067;39.548;-76.088;2024-02-21T06:30:17;2;2;
31330;PMS5003;34067;39.548;-76.088;2024-02-21T06:32:45;2;2;
31330;PMS5003;34067;39.548;-76.088;2024-02-21T06:35:12;1;1;
31330;PMS5003;34067;39.548;-76.088;2024-02-21T06:37:40;2;2;
31330;PMS5003;34067;39.548;-76.088;2024-02-21T06:40:08;2;2;
31330;PMS5003;34067;39.548;-76.088;2024-02-21T06:42:35;2;2;
31330;PMS5003;34067;39.548;-76.088;2024-02-21T06:45:03;2;2;
31330;PMS5003;34067;39.548;-76.088;2024-02-21T06:47:31;2;1;
31330;PMS5003;34067;39.548;-76.088;2024-02-21T06:49:59;2;2;
31330;PMS5003;34067;39.548;-76.088;2024-02-21T06:52:26;1;1;
31330;PMS5003;34067;39.548;-76.088;2024-02-21T06:54:54;1;1;
31330;PMS5003;34067;39.548;-76.088;2024-02-21T06:57:22;2;2;
31330;PMS5003;34067;39.548;-76.088;2024-02-21T06:59:49;2;2;
31330;PMS5003;34067;39.548;-76.088;2024-02-21T07:02:17;1;1;
31330;PMS5003;34067;39.548;-76.088;2024-02-21T07:04:45;2;2;
31330;PMS5003;34067;39.548;-76.088;2024-02-21T07:07:12;2;2;
31330;PMS5003;34067;39.548;-76.088;2024-02-21T07:09:40;1;1;
31330;PMS5003;34067;39.548;-76.088;2024-02-21T07:12:07;3;2;
31330;PMS5003;34067;39.548;-76.088;2024-02-21T07:14:35;2;2;
31330;PMS5003;34067;39.548;-76.088;2024-02-21T07:17:04;2;2;
31330;PMS5003;34067;39.548;-76.088;2024-02-21T07:19:31;1;1;
31330;PMS5003;34067;39.548;-76.088;2024-02-21T07:21:59;1;1;
31330;PMS5003;34067;39.548;-76.088;2024-02-21T07:24:27;2;2;
31330;PMS5003;34067;39.548;-76.088;2024-02-21T07:26:55;1;1;
31330;PMS5003;34067;39.548;-76.088;2024-02-21T07:29:23;3;2;
31330;PMS5003;34067;39.548;-76.088;2024-02-21T07:31:50;6;4;
31330;PMS5003;34067;39.548;-76.088;2024-02-21T07:34:18;3;3;
31330;PMS5003;34067;39.548;-76.088;2024-02-21T07:36:45;1;1;
31330;PMS5003;34067;39.548;-76.088;2024-02-21T07:39:13;3;3;
31330;PMS5003;34067;39.548;-76.088;2024-02-21T07:41:41;2;1;
31330;PMS5003;34067;39.548;-76.088;2024-02-21T07:44:08;3;2;
31330;PMS5003;34067;39.548;-76.088;2024-02-21T07:46:36;1;1;
31330;PMS5003;34067;39.548;-76.088;2024-02-21T07:49:04;3;3;
31330;PMS5003;34067;39.548;-76.088;2024-02-21T07:51:31;2;2;
31330;PMS5003;34067;39.548;-76.088;2024-02-21T07:53:59;3;3;
31330;PMS5003;34067;39.548;-76.088;2024-02-21T07:56:27;4;4;
31330;PMS5003;34067;39.548;-76.088;2024-02-21T07:58:55;4;3;
31330;PMS5003;34067;39.548;-76.088;2024-02-21T08:01:23;2;2;
31330;PMS5003;34067;39.548;-76.088;2024-02-21T08:03:50;4;3;
31330;PMS5003;34067;39.548;-76.088;2024-02-21T08:06:18;1;1;
31330;PMS5003;34067;39.548;-76.088;2024-02-21T08:08:46;2;2;
31330;PMS5003;34067;39.548;-76.088;2024-02-21T08:11:13;1;1;
31330;PMS5003;34067;39.548;-76.088;2024-02-21T08:13:41;1;1;
31330;PMS5003;34067;39.548;-76.088;2024-02-21T08:16:08;1;1;
31330;PMS5003;34067;39.548;-76.088;2024-02-21T08:18:36;1;1;
31330;PMS5003;34067;39.548;-76.088;2024-02-21T08:21:04;2;2;
31330;PMS5003;34067;39.548;-76.088;2024-02-21T08:23:32;2;2;
31330;PMS5003;34067;39.548;-76.088;2024-02-21T08:26:02;1;1;
31330;PMS5003;34067;39.548;-76.088;2024-02-21T08:28:30;2;2;
31330;PMS5003;34067;39.548;-76.088;2024-02-21T08:30:58;2;1;
31330;PMS5003;34067;39.548;-76.088;2024-02-21T08:33:25;2;2;
31330;PMS5003;34067;39.548;-76.088;2024-02-21T08:35:53;2;2;
31330;PMS5003;34067;39.548;-76.088;2024-02-21T08:38:20;2;2;
31330;PMS5003;34067;39.548;-76.088;2024-02-21T08:40:48;1;1;
31330;PMS5003;34067;39.548;-76.088;2024-02-21T08:43:17;2;2;
31330;PMS5003;34067;39.548;-76.088;2024-02-21T08:45:44;3;3;
31330;PMS5003;34067;39.548;-76.088;2024-02-21T08:48:12;2;2;
31330;PMS5003;34067;39.548;-76.088;2024-02-21T08:50:39;2;2;
31330;PMS5003;34067;39.548;-76.088;2024-02-21T08:53:07;4;4;
31330;PMS5003;34067;39.548;-76.088;2024-02-21T08:55:35;3;3;
31330;PMS5003;34067;39.548;-76.088;2024-02-21T08:58:02;2;2;
31330;PMS5003;34067;39.548;-76.088;2024-02-21T09:00:30;3;3;
31330;PMS5003;34067;39.548;-76.088;2024-02-21T09:02:57;2;2;
31330;PMS5003;34067;39.548;-76.088;2024-02-21T09:05:25;4;3;
31330;PMS5003;34067;39.548;-76.088;2024-02-21T09:07:53;2;2;
31330;PMS5003;34067;39.548;-76.088;2024-02-21T09:10:20;3;3;
31330;PMS5003;34067;39.548;-76.088;2024-02-21T09:12:48;3;3;
31330;PMS5003;34067;39.548;-76.088;2024-02-21T09:15:16;3;3;
31330;PMS5003;34067;39.548;-76.088;2024-02-21T09:17:44;3;3;
31330;PMS5003;34067;39.548;-76.088;2024-02-21T09:20:12;1;1;
31330;PMS5003;34067;39.548;-76.088;2024-02-21T09:22:40;2;2;
31330;PMS5003;34067;39.548;-76.088;2024-02-21T09:25:08;4;3;
31330;PMS5003;34067;39.548;-76.088;2024-02-21T09:27:35;3;2;
31330;PMS5003;34067;39.548;-76.088;2024-02-21T09:30:04;5;3;
31330;PMS5003;34067;39.548;-76.088;2024-02-21T09:32:33;2;2;
31330;PMS5003;34067;39.548;-76.088;2024-02-21T09:35:02;2;2;
31330;PMS5003;34067;39.548;-76.088;2024-02-21T09:37:30;4;4;
31330;PMS5003;34067;39.548;-76.088;2024-02-21T09:39:58;3;3;
31330;PMS5003;34067;39.548;-76.088;2024-02-21T09:42:27;5;5;
31330;PMS5003;34067;39.548;-76.088;2024-02-21T09:45:04;2;2;
31330;PMS5003;34067;39.548;-76.088;2024-02-21T09:47:42;2;2;
31330;PMS5003;34067;39.548;-76.088;2024-02-21T09:50:17;5;3;
31330;PMS5003;34067;39.548;-76.088;2024-02-21T09:52:46;2;2;
31330;PMS5003;34067;39.548;-76.088;2024-02-21T09:55:16;3;3;
31330;PMS5003;34067;39.548;-76.088;2024-02-21T09:57:45;3;3;
31330;PMS5003;34067;39.548;-76.088;2024-02-21T10:00:13;3;2;
31330;PMS5003;34067;39.548;-76.088;2024-02-21T10:02:42;2;2;
31330;PMS5003;34067;39.548;-76.088;2024-02-21T10:05:10;1;1;
31330;PMS5003;34067;39.548;-76.088;2024-02-21T10:07:38;2;2;
31330;PMS5003;34067;39.548;-76.088;2024-02-21T10:10:06;1;1;
31330;PMS5003;34067;39.548;-76.088;2024-02-21T10:12:35;5;5;
31330;PMS5003;34067;39.548;-76.088;2024-02-21T10:15:03;3;3;
31330;PMS5003;34067;39.548;-76.088;2024-02-21T10:17:32;2;2;
31330;PMS5003;34067;39.548;-76.088;2024-02-21T10:20:06;3;2;
31330;PMS5003;34067;39.548;-76.088;2024-02-21T10:22:34;2;2;
31330;PMS5003;34067;39.548;-76.088;2024-02-21T10:25:06;5;3;
31330;PMS5003;34067;39.548;-76.088;2024-02-21T10:27:36;3;3;
31330;PMS5003;34067;39.548;-76.088;2024-02-21T10:30:05;5;2;
31330;PMS5003;34067;39.548;-76.088;2024-02-21T10:32:34;3;3;
31330;PMS5003;34067;39.548;-76.088;2024-02-21T10:35:01;3;3;
31330;PMS5003;34067;39.548;-76.088;2024-02-21T10:37:31;5;5;
31330;PMS5003;34067;39.548;-76.088;2024-02-21T10:39:58;2;2;
31330;PMS5003;34067;39.548;-76.088;2024-02-21T10:42:28;3;3;
31330;PMS5003;34067;39.548;-76.088;2024-02-21T10:45:00;3;3;
31330;PMS5003;34067;39.548;-76.088;2024-02-21T10:47:28;2;2;
31330;PMS5003;34067;39.548;-76.088;2024-02-21T10:50:01;3;3;
31330;PMS5003;34067;39.548;-76.088;2024-02-21T10:52:35;2;2;
31330;PMS5003;34067;39.548;-76.088;2024-02-21T10:55:12;2;2;
31330;PMS5003;34067;39.548;-76.088;2024-02-21T10:57:47;2;2;
31330;PMS5003;34067;39.548;-76.088;2024-02-21T11:00:17;5;5;
31330;PMS5003;34067;39.548;-76.088;2024-02-21T11:02:46;5;5;
31330;PMS5003;34067;39.548;-76.088;2024-02-21T11:05:15;5;3;
31330;PMS5003;34067;39.548;-76.088;2024-02-21T11:07:44;5;5;
31330;PMS5003;34067;39.548;-76.088;2024-02-21T11:10:20;6;5;
31330;PMS5003;34067;39.548;-76.088;2024-02-21T11:12:52;5;5;
31330;PMS5003;34067;39.548;-76.088;2024-02-21T11:15:24;6;6;
31330;PMS5003;34067;39.548;-76.088;2024-02-21T11:17:55;8;3;
31330;PMS5003;34067;39.548;-76.088;2024-02-21T11:20:31;5;5;
31330;PMS5003;34067;39.548;-76.088;2024-02-21T11:23:00;8;7;
31330;PMS5003;34067;39.548;-76.088;2024-02-21T11:25:28;10;8;
31330;PMS5003;34067;39.548;-76.088;2024-02-21T11:28:00;6;6;
31330;PMS5003;34067;39.548;-76.088;2024-02-21T11:30:29;6;6;
31330;PMS5003;34067;39.548;-76.088;2024-02-21T11:33:00;6;6;
31330;PMS5003;34067;39.548;-76.088;2024-02-21T11:35:31;14;14;
31330;PMS5003;34067;39.548;-76.088;2024-02-21T11:38:15;14;12;
31330;PMS5003;34067;39.548;-76.088;2024-02-21T11:40:45;23;23;
31330;PMS5003;34067;39.548;-76.088;2024-02-21T11:43:13;26;26;
31330;PMS5003;34067;39.548;-76.088;2024-02-21T11:45:42;32;29;
31330;PMS5003;34067;39.548;-76.088;2024-02-21T11:48:10;30;29;
31330;PMS5003;34067;39.548;-76.088;2024-02-21T11:50:37;57;57;
31330;PMS5003;34067;39.548;-76.088;2024-02-21T11:53:05;48;47;
31330;PMS5003;34067;39.548;-76.088;2024-02-21T11:55:33;33;33;
31330;PMS5003;34067;39.548;-76.088;2024-02-21T11:58:01;25;25;
31330;PMS5003;34067;39.548;-76.088;2024-02-21T12:00:28;21;20;
31330;PMS5003;34067;39.548;-76.088;2024-02-21T12:02:57;21;20;
31330;PMS5003;34067;39.548;-76.088;2024-02-21T12:05:25;26;25;
31330;PMS5003;34067;39.548;-76.088;2024-02-21T12:07:53;25;24;
31330;PMS5003;34067;39.548;-76.088;2024-02-21T12:10:21;19;18;
31330;PMS5003;34067;39.548;-76.088;2024-02-21T12:12:48;17;16;
31330;PMS5003;34067;39.548;-76.088;2024-02-21T12:15:16;16;15;
31330;PMS5003;34067;39.548;-76.088;2024-02-21T12:17:46;20;19;
31330;PMS5003;34067;39.548;-76.088;2024-02-21T12:20:14;18;18;
31330;PMS5003;34067;39.548;-76.088;2024-02-21T12:22:42;12;11;
31330;PMS5003;34067;39.548;-76.088;2024-02-21T12:25:18;9;9;
31330;PMS5003;34067;39.548;-76.088;2024-02-21T12:27:48;15;12;
31330;PMS5003;34067;39.548;-76.088;2024-02-21T12:30:16;24;20;
31330;PMS5003;34067;39.548;-76.088;2024-02-21T12:32:45;8;8;
31330;PMS5003;34067;39.548;-76.088;2024-02-21T12:35:12;8;6;
31330;PMS5003;34067;39.548;-76.088;2024-02-21T12:37:41;8;7;
31330;PMS5003;34067;39.548;-76.088;2024-02-21T12:40:09;8;7;
31330;PMS5003;34067;39.548;-76.088;2024-02-21T12:42:37;6;6;
31330;PMS5003;34067;39.548;-76.088;2024-02-21T12:45:05;7;7;
31330;PMS5003;34067;39.548;-76.088;2024-02-21T12:47:33;7;7;
31330;PMS5003;34067;39.548;-76.088;2024-02-21T12:50:01;7;7;
31330;PMS5003;34067;39.548;-76.088;2024-02-21T12:52:30;8;8;
31330;PMS5003;34067;39.548;-76.088;2024-02-21T12:54:57;7;7;
31330;PMS5003;34067;39.548;-76.088;2024-02-21T12:57:25;8;6;
31330;PMS5003;34067;39.548;-76.088;2024-02-21T12:59:52;7;7;
31330;PMS5003;34067;39.548;-76.088;2024-02-21T13:02:20;12;7;
31330;PMS5003;34067;39.548;-76.088;2024-02-21T13:04:48;8;8;
31330;PMS5003;34067;39.548;-76.088;2024-02-21T13:07:15;6;5;
31330;PMS5003;34067;39.548;-76.088;2024-02-21T13:09:43;6;5;
31330;PMS5003;34067;39.548;-76.088;2024-02-21T13:12:11;5;5;
31330;PMS5003;34067;39.548;-76.088;2024-02-21T13:14:38;6;6;
31330;PMS5003;34067;39.548;-76.088;2024-02-21T13:17:06;8;7;
31330;PMS5003;34067;39.548;-76.088;2024-02-21T13:19:34;6;6;
31330;PMS5003;34067;39.548;-76.088;2024-02-21T13:22:02;7;6;
31330;PMS5003;34067;39.548;-76.088;2024-02-21T13:24:30;7;6;
31330;PMS5003;34067;39.548;-76.088;2024-02-21T13:26:58;6;6;
31330;PMS5003;34067;39.548;-76.088;2024-02-21T13:29:26;9;7;
31330;PMS5003;34067;39.548;-76.088;2024-02-21T13:31:54;8;6;
31330;PMS5003;34067;39.548;-76.088;2024-02-21T13:34:23;7;6;
31330;PMS5003;34067;39.548;-76.088;2024-02-21T13:36:50;6;6;
31330;PMS5003;34067;39.548;-76.088;2024-02-21T13:39:18;4;4;
31330;PMS5003;34067;39.548;-76.088;2024-02-21T13:41:45;4;4;
31330;PMS5003;34067;39.548;-76.088;2024-02-21T13:44:13;4;4;
31330;PMS5003;34067;39.548;-76.088;2024-02-21T13:46:41;7;6;
31330;PMS5003;34067;39.548;-76.088;2024-02-21T13:49:08;4;4;
31330;PMS5003;34067;39.548;-76.088;2024-02-21T13:51:36;4;4;
31330;PMS5003;34067;39.548;-76.088;2024-02-21T13:54:03;3;3;
31330;PMS5003;34067;39.548;-76.088;2024-02-21T13:56:32;3;3;
31330;PMS5003;34067;39.548;-76.088;2024-02-21T13:58:59;4;4;
31330;PMS5003;34067;39.548;-76.088;2024-02-21T14:01:27;6;4;
31330;PMS5003;34067;39.548;-76.088;2024-02-21T14:03:54;4;4;
31330;PMS5003;34067;39.548;-76.088;2024-02-21T14:06:22;4;3;
31330;PMS5003;34067;39.548;-76.088;2024-02-21T14:08:50;3;3;
31330;PMS5003;34067;39.548;-76.088;2024-02-21T14:11:17;6;4;
31330;PMS5003;34067;39.548;-76.088;2024-02-21T14:13:45;4;3;
31330;PMS5003;34067;39.548;-76.088;2024-02-21T14:16:12;4;4;
31330;PMS5003;34067;39.548;-76.088;2024-02-21T14:18:40;3;3;
31330;PMS5003;34067;39.548;-76.088;2024-02-21T14:21:07;4;3;
31330;PMS5003;34067;39.548;-76.088;2024-02-21T14:23:35;4;3;
31330;PMS5003;34067;39.548;-76.088;2024-02-21T14:26:04;3;3;
31330;PMS5003;34067;39.548;-76.088;2024-02-21T14:28:32;2;2;
31330;PMS5003;34067;39.548;-76.088;2024-02-21T14:31:00;3;3;
31330;PMS5003;34067;39.548;-76.088;2024-02-21T14:33:29;3;2;
31330;PMS5003;34067;39.548;-76.088;2024-02-21T14:35:57;2;2;
31330;PMS5003;34067;39.548;-76.088;2024-02-21T14:38:25;3;3;
31330;PMS5003;34067;39.548;-76.088;2024-02-21T14:40:52;3;3;
31330;PMS5003;34067;39.548;-76.088;2024-02-21T14:43:20;1;1;
31330;PMS5003;34067;39.548;-76.088;2024-02-21T14:45:48;1;1;
31330;PMS5003;34067;39.548;-76.088;2024-02-21T14:48:16;1;1;
31330;PMS5003;34067;39.548;-76.088;2024-02-21T14:50:45;1;1;
31330;PMS5003;34067;39.548;-76.088;2024-02-21T14:53:12;2;1;
31330;PMS5003;34067;39.548;-76.088;2024-02-21T14:55:40;2;2;
31330;PMS5003;34067;39.548;-76.088;2024-02-21T14:58:08;3;3;
31330;PMS5003;34067;39.548;-76.088;2024-02-21T15:00:36;2;2;
31330;PMS5003;34067;39.548;-76.088;2024-02-21T15:03:04;4;2;
31330;PMS5003;34067;39.548;-76.088;2024-02-21T15:05:32;2;1;
31330;PMS5003;34067;39.548;-76.088;2024-02-21T15:08:00;1;1;
31330;PMS5003;34067;39.548;-76.088;2024-02-21T15:10:27;1;1;
31330;PMS5003;34067;39.548;-76.088;2024-02-21T15:12:55;1;1;
31330;PMS5003;34067;39.548;-76.088;2024-02-21T15:15:22;1;1;
31330;PMS5003;34067;39.548;-76.088;2024-02-21T15:17:50;2;2;
31330;PMS5003;34067;39.548;-76.088;2024-02-21T15:20:18;4;3;
31330;PMS5003;34067;39.548;-76.088;2024-02-21T15:22:46;3;3;
31330;PMS5003;34067;39.548;-76.088;2024-02-21T15:25:14;6;6;
31330;PMS5003;34067;39.548;-76.088;2024-02-21T15:27:42;2;2;
31330;PMS5003;34067;39.548;-76.088;2024-02-21T15:30:10;1;1;
31330;PMS5003;34067;39.548;-76.088;2024-02-21T15:32:40;2;2;
31330;PMS5003;34067;39.548;-76.088;2024-02-21T15:35:08;2;2;
31330;PMS5003;34067;39.548;-76.088;2024-02-21T15:37:37;3;3;
31330;PMS5003;34067;39.548;-76.088;2024-02-21T15:40:05;97;97;
31330;PMS5003;34067;39.548;-76.088;2024-02-21T15:42:34;27;26;
31330;PMS5003;34067;39.548;-76.088;2024-02-21T15:45:02;28;27;
31330;PMS5003;34067;39.548;-76.088;2024-02-21T15:47:30;31;31;
31330;PMS5003;34067;39.548;-76.088;2024-02-21T15:49:58;23;23;
31330;PMS5003;34067;39.548;-76.088;2024-02-21T15:52:25;21;20;
31330;PMS5003;34067;39.548;-76.088;2024-02-21T15:54:53;16;14;
31330;PMS5003;34067;39.548;-76.088;2024-02-21T15:57:20;7;7;
31330;PMS5003;34067;39.548;-76.088;2024-02-21T15:59:48;2;2;
31330;PMS5003;34067;39.548;-76.088;2024-02-21T16:02:16;2;2;
31330;PMS5003;34067;39.548;-76.088;2024-02-21T16:04:45;1;1;
31330;PMS5003;34067;39.548;-76.088;2024-02-21T16:07:12;19;18;
31330;PMS5003;34067;39.548;-76.088;2024-02-21T16:09:40;2;1;
31330;PMS5003;34067;39.548;-76.088;2024-02-21T16:12:08;2;2;
31330;PMS5003;34067;39.548;-76.088;2024-02-21T16:14:36;2;2;
31330;PMS5003;34067;39.548;-76.088;2024-02-21T16:17:05;2;2;
31330;PMS5003;34067;39.548;-76.088;2024-02-21T16:19:33;2;2;
31330;PMS5003;34067;39.548;-76.088;2024-02-21T16:22:01;3;3;